Time;durP1;ratioP1;P1;durP2;ratioP2;P2;SDS_P1;SDS_P2;PMS_P1;PMS_P2;Temp;Humidity;BMP_temperature;BMP_pressure;BME280_temperature;BME280_humidity;BME280_pressure;Samples;Min_cycle;Max_cycle;Signal;HPM_P1;HPM_P2
2023/11/23 00:00:37;;;;;;;23.87;9.60;;;-2.30;99.90;;;;;;4447010;28;657838;-76
2023/11/23 00:03:25;;;;;;;41.47;17.80;;;-2.20;99.90;;;;;;4461380;28;658151;-76
2023/11/23 00:06:12;;;;;;;29.53;11.93;;;-2.30;99.90;;;;;;4447705;28;658730;-76
2023/11/23 00:09:00;;;;;;;30.13;14.00;;;-2.30;99.90;;;;;;4461489;28;658654;-76
2023/11/23 00:11:47;;;;;;;32.13;14.13;;;-2.20;99.90;;;;;;4452258;28;659012;-74
2023/11/23 00:14:36;;;;;;;40.20;16.60;;;-2.30;99.90;;;;;;4450957;28;659395;-74
2023/11/23 00:17:23;;;;;;;7.87;3.63;;;-2.40;99.90;;;;;;4430624;28;658877;-74
2023/11/23 00:20:11;;;;;;;45.40;16.70;;;-2.20;99.90;;;;;;4456594;28;657474;-75
2023/11/23 00:22:58;;;;;;;23.50;10.17;;;-2.30;99.90;;;;;;4435696;28;658469;-75
2023/11/23 00:25:46;;;;;;;44.70;20.03;;;-2.20;99.90;;;;;;4459235;28;658744;-74
2023/11/23 00:28:33;;;;;;;32.10;15.63;;;-2.30;99.90;;;;;;4434806;27;658223;-74
2023/11/23 00:31:21;;;;;;;31.57;13.57;;;-2.30;99.90;;;;;;4457454;27;659649;-75
2023/11/23 00:34:08;;;;;;;33.78;13.57;;;-2.20;99.90;;;;;;4435733;27;658610;-74
2023/11/23 00:36:56;;;;;;;40.33;16.37;;;-2.20;99.90;;;;;;4461323;27;658486;-74
2023/11/23 00:39:43;;;;;;;38.07;14.60;;;-2.30;99.90;;;;;;4431786;27;658308;-75
2023/11/23 00:42:31;;;;;;;44.97;19.67;;;-2.30;99.90;;;;;;4442905;28;659478;-74
2023/11/23 00:45:18;;;;;;;34.47;11.57;;;-2.30;99.90;;;;;;4442915;27;658395;-73
2023/11/23 00:48:06;;;;;;;33.77;15.70;;;-2.20;99.90;;;;;;4455939;27;659170;-74
2023/11/23 00:50:54;;;;;;;26.23;10.93;;;-2.20;99.90;;;;;;4431902;27;658458;-74
2023/11/23 00:53:41;;;;;;;25.33;9.50;;;-2.30;99.90;;;;;;4456093;28;658201;-74
2023/11/23 00:56:28;;;;;;;33.57;14.37;;;-2.20;99.90;;;;;;4440446;27;657836;-73
2023/11/23 00:59:16;;;;;;;53.27;22.57;;;-2.20;99.90;;;;;;4462176;28;659617;-75
2023/11/23 01:02:03;;;;;;;50.20;19.40;;;-2.30;99.90;;;;;;4438930;27;658588;-74
2023/11/23 01:04:52;;;;;;;32.00;11.53;;;-2.30;99.90;;;;;;4456156;27;659267;-74
2023/11/23 01:07:39;;;;;;;33.57;14.57;;;-2.20;99.90;;;;;;4435625;27;659107;-74
2023/11/23 01:10:26;;;;;;;54.73;20.23;;;-2.20;99.90;;;;;;4459770;27;659267;-75
2023/11/23 01:13:14;;;;;;;27.60;10.73;;;-2.20;99.90;;;;;;4435252;27;658370;-74
2023/11/23 01:16:02;;;;;;;18.87;7.43;;;-2.20;99.90;;;;;;4446583;27;659331;-76
2023/11/23 01:18:49;;;;;;;52.43;22.33;;;-2.20;99.90;;;;;;4443337;27;658211;-76
2023/11/23 01:21:38;;;;;;;60.25;25.70;;;-2.20;99.90;;;;;;4459418;27;658571;-77
2023/11/23 01:24:25;;;;;;;44.83;18.80;;;-2.30;99.90;;;;;;4423512;28;658934;-75
2023/11/23 01:27:12;;;;;;;48.30;18.90;;;-2.30;99.90;;;;;;4434253;27;659169;-74
2023/11/23 01:30:00;;;;;;;18.53;7.77;;;-2.20;99.90;;;;;;4453457;27;659633;-74
2023/11/23 01:32:48;;;;;;;50.27;20.00;;;-2.20;99.90;;;;;;4461757;27;657470;-74
2023/11/23 01:35:35;;;;;;;34.57;14.83;;;-2.20;99.90;;;;;;4457857;27;659999;-73
2023/11/23 01:38:24;;;;;;;29.83;11.60;;;-2.10;99.90;;;;;;4436889;28;659486;-74
2023/11/23 01:41:11;;;;;;;20.33;9.37;;;-2.10;99.90;;;;;;4449108;27;658405;-74
2023/11/23 01:43:59;;;;;;;42.60;16.07;;;-2.10;99.90;;;;;;4435445;27;657950;-75
2023/11/23 01:46:46;;;;;;;52.20;20.80;;;-2.10;99.90;;;;;;4460680;27;658463;-75
2023/11/23 01:49:34;;;;;;;41.70;17.00;;;-2.10;99.90;;;;;;4447207;27;658892;-74
2023/11/23 01:52:21;;;;;;;23.73;10.17;;;-2.20;99.90;;;;;;4451312;27;658699;-74
2023/11/23 01:55:12;;;;;;;34.30;12.35;;;-2.10;99.90;;;;;;4429226;27;658835;-74
2023/11/23 01:57:59;;;;;;;25.93;10.33;;;-2.10;99.90;;;;;;4420266;28;659343;-75
2023/11/23 02:00:46;;;;;;;22.00;8.32;;;-2.10;99.90;;;;;;4453053;27;658463;-74
2023/11/23 02:03:34;;;;;;;29.77;10.53;;;-2.00;99.90;;;;;;4439293;27;658095;-74
2023/11/23 02:06:21;;;;;;;33.47;15.57;;;-2.00;99.90;;;;;;4459900;27;659412;-74
2023/11/23 02:09:08;;;;;;;43.00;16.70;;;-2.10;99.90;;;;;;4432058;28;659173;-75
2023/11/23 02:11:57;;;;;;;40.07;16.97;;;-2.10;99.90;;;;;;4457422;27;659328;-75
2023/11/23 02:14:44;;;;;;;26.83;12.00;;;-2.00;99.90;;;;;;4422276;28;659852;-74
2023/11/23 02:17:31;;;;;;;26.50;11.17;;;-2.10;99.90;;;;;;4467465;27;658891;-76
2023/11/23 02:20:20;;;;;;;30.50;13.83;;;-2.10;99.90;;;;;;4425222;28;659111;-74
2023/11/23 02:23:07;;;;;;;14.37;5.80;;;-2.10;99.90;;;;;;4447753;28;657998;-74
2023/11/23 02:25:55;;;;;;;31.47;13.57;;;-2.00;99.90;;;;;;4438572;27;658548;-75
2023/11/23 02:28:42;;;;;;;25.55;10.80;;;-2.00;99.90;;;;;;4440291;27;658877;-76
2023/11/23 02:31:31;;;;;;;18.93;6.43;;;-2.10;99.90;;;;;;4449663;27;659702;-76
2023/11/23 02:34:19;;;;;;;22.53;9.93;;;-2.00;99.90;;;;;;4420583;28;657467;-73
2023/11/23 02:37:06;;;;;;;23.57;8.63;;;-2.00;99.90;;;;;;4447088;28;657344;-74
2023/11/23 02:39:53;;;;;;;22.80;9.57;;;-2.00;99.90;;;;;;4426937;27;658748;-75
2023/11/23 02:42:42;;;;;;;19.43;6.70;;;-2.00;99.90;;;;;;4460657;27;658633;-74
2023/11/23 02:45:29;;;;;;;24.63;10.90;;;-2.00;99.90;;;;;;4431664;27;659154;-74
2023/11/23 02:48:16;;;;;;;19.23;8.50;;;-1.90;99.90;;;;;;4445983;28;658651;-76
2023/11/23 02:51:03;;;;;;;23.03;9.67;;;-1.90;99.90;;;;;;4432065;27;657192;-76
2023/11/23 02:53:51;;;;;;;27.27;11.30;;;-1.90;99.90;;;;;;4455273;28;658528;-76
2023/11/23 02:56:38;;;;;;;32.30;14.57;;;-1.90;99.90;;;;;;4439506;27;658651;-74
2023/11/23 02:59:26;;;;;;;25.33;11.33;;;-1.90;99.90;;;;;;4452425;27;658845;-74
2023/11/23 03:02:14;;;;;;;21.77;8.87;;;-1.80;99.90;;;;;;4425365;27;658713;-74
2023/11/23 03:05:01;;;;;;;32.97;15.77;;;-1.80;99.90;;;;;;4455907;28;658440;-75
2023/11/23 03:07:48;;;;;;;32.57;14.30;;;-1.80;99.90;;;;;;4433721;27;658674;-75
2023/11/23 03:10:35;;;;;;;28.40;11.77;;;-1.80;99.90;;;;;;4453549;27;659644;-74
2023/11/23 03:13:24;;;;;;;29.67;13.20;;;-1.80;99.90;;;;;;4430292;27;658696;-75
2023/11/23 03:16:12;;;;;;;32.83;12.80;;;-1.70;99.90;;;;;;4464886;27;658758;-75
2023/11/23 03:19:00;;;;;;;24.47;9.97;;;-1.70;99.90;;;;;;4427267;27;659435;-74
2023/11/23 03:21:47;;;;;;;17.10;7.10;;;-1.60;99.90;;;;;;4447266;27;657807;-74
2023/11/23 03:24:35;;;;;;;19.40;8.77;;;-1.70;99.90;;;;;;4462585;27;657812;-74
2023/11/23 03:27:22;;;;;;;16.07;6.63;;;-1.60;99.90;;;;;;4470519;27;656870;-73
2023/11/23 03:30:10;;;;;;;34.13;13.73;;;-1.60;99.90;;;;;;4457542;27;657933;-75
2023/11/23 03:32:59;;;;;;;30.20;12.93;;;-1.60;99.90;;;;;;4430984;28;658881;-75
2023/11/23 03:35:46;;;;;;;12.07;6.47;;;-1.60;99.90;;;;;;4461281;27;659111;-74
2023/11/23 03:38:33;;;;;;;23.30;10.60;;;-1.50;99.90;;;;;;4433682;27;657204;-77
2023/11/23 03:41:21;;;;;;;16.23;6.70;;;-1.60;99.90;;;;;;4455504;27;658663;-74
2023/11/23 03:44:08;;;;;;;26.47;6.93;;;-1.50;99.90;;;;;;4433331;28;657205;-74
2023/11/23 03:46:55;;;;;;;15.53;7.77;;;-1.50;99.90;;;;;;4456394;28;657414;-74
2023/11/23 03:49:45;;;;;;;35.78;15.75;;;-1.50;99.90;;;;;;4437747;28;657523;-74
2023/11/23 03:52:32;;;;;;;32.83;12.63;;;-1.50;99.90;;;;;;4451927;28;658329;-74
2023/11/23 03:55:20;;;;;;;40.60;14.60;;;-1.50;99.90;;;;;;4453329;27;659218;-75
2023/11/23 03:58:07;;;;;;;27.13;12.30;;;-1.50;99.90;;;;;;4458456;28;658485;-74
2023/11/23 04:00:54;;;;;;;17.93;7.87;;;-1.40;99.90;;;;;;4438814;28;659994;-73
2023/11/23 04:03:44;;;;;;;14.73;5.30;;;-1.40;99.90;;;;;;4452495;28;657644;-74
2023/11/23 04:06:32;;;;;;;11.67;6.23;;;-1.30;99.90;;;;;;4426579;28;658441;-74
2023/11/23 04:09:19;;;;;;;28.70;9.73;;;-1.40;99.90;;;;;;4428513;28;657838;-74
2023/11/23 04:12:07;;;;;;;28.30;11.10;;;-1.30;99.90;;;;;;4457490;28;658968;-76
2023/11/23 04:14:54;;;;;;;22.13;8.37;;;-1.30;99.90;;;;;;4429363;28;658758;-76
2023/11/23 04:17:42;;;;;;;24.80;9.87;;;-1.30;99.90;;;;;;4459939;28;657807;-76
2023/11/23 04:20:29;;;;;;;24.27;10.50;;;-1.20;99.90;;;;;;4435697;28;660284;-74
2023/11/23 04:23:18;;;;;;;16.87;7.33;;;-1.30;99.90;;;;;;4446421;28;659231;-77
2023/11/23 04:26:05;;;;;;;34.63;13.90;;;-1.20;99.90;;;;;;4430648;28;658345;-77
2023/11/23 04:28:53;;;;;;;18.88;7.53;;;-1.20;99.90;;;;;;4427347;28;658854;-76
2023/11/23 04:31:40;;;;;;;25.63;10.23;;;-1.20;99.90;;;;;;4458376;28;658269;-76
2023/11/23 04:34:28;;;;;;;14.23;6.87;;;-1.20;99.90;;;;;;4425177;28;658801;-76
2023/11/23 04:37:15;;;;;;;31.20;12.37;;;-1.20;99.90;;;;;;4449603;28;657192;-76
2023/11/23 04:40:06;;;;;;;26.90;10.17;;;-1.10;99.90;;;;;;4448706;28;658718;-76
2023/11/23 04:42:53;;;;;;;28.33;11.10;;;-1.10;99.90;;;;;;4443927;28;659165;-77
2023/11/23 04:45:40;;;;;;;39.87;17.37;;;-1.10;99.90;;;;;;4466758;28;658749;-77
2023/11/23 04:48:28;;;;;;;32.80;13.97;;;-1.10;99.90;;;;;;4434555;28;659553;-76
2023/11/23 04:51:16;;;;;;;31.23;12.07;;;-1.10;99.90;;;;;;4446378;28;659461;-77
2023/11/23 04:54:04;;;;;;;20.03;7.73;;;-1.00;99.90;;;;;;4431584;28;659198;-76
2023/11/23 04:56:53;;;;;;;19.07;7.97;;;-1.00;99.90;;;;;;4449683;28;657841;-76
2023/11/23 04:59:40;;;;;;;19.73;7.83;;;-1.00;99.90;;;;;;4437473;28;658686;-76
2023/11/23 05:02:27;;;;;;;34.13;13.87;;;-1.00;99.90;;;;;;4442272;28;657127;-77
2023/11/23 05:05:15;;;;;;;29.33;12.73;;;-1.00;99.90;;;;;;4443985;28;658927;-77
2023/11/23 05:08:04;;;;;;;31.00;13.70;;;-0.90;99.90;;;;;;4441700;28;658692;-74
2023/11/23 05:10:51;;;;;;;21.17;7.47;;;-1.00;99.90;;;;;;4446913;28;658825;-75
2023/11/23 05:13:40;;;;;;;26.53;8.40;;;-0.90;99.90;;;;;;4432496;27;657748;-77
2023/11/23 05:16:27;;;;;;;28.67;12.33;;;-1.00;99.90;;;;;;4458806;27;657424;-74
2023/11/23 05:19:15;;;;;;;18.00;7.33;;;-1.00;99.90;;;;;;4456105;28;659790;-74
2023/11/23 05:22:02;;;;;;;32.97;14.07;;;-0.90;99.90;;;;;;4464253;27;659204;-78
2023/11/23 05:24:50;;;;;;;30.20;12.20;;;-0.90;99.90;;;;;;4462426;27;659038;-77
2023/11/23 05:27:37;;;;;;;23.00;9.77;;;-0.90;99.90;;;;;;4458820;27;658503;-75
2023/11/23 05:30:27;;;;;;;31.20;13.50;;;-0.90;99.90;;;;;;4459627;27;657674;-77
2023/11/23 05:33:15;;;;;;;27.13;12.05;;;-0.90;99.90;;;;;;4426124;28;658666;-74
2023/11/23 05:36:02;;;;;;;17.00;7.70;;;-0.90;99.90;;;;;;4450312;27;658054;-78
2023/11/23 05:38:49;;;;;;;16.77;7.93;;;-0.80;99.90;;;;;;4444958;27;658304;-76
2023/11/23 05:41:36;;;;;;;21.63;7.87;;;-0.80;99.90;;;;;;4460258;27;657651;-77
2023/11/23 05:44:23;;;;;;;36.27;13.27;;;-0.80;99.90;;;;;;4436442;27;657692;-77
2023/11/23 05:47:12;;;;;;;21.57;7.13;;;-0.80;99.90;;;;;;4446280;27;660490;-78
2023/11/23 05:50:01;;;;;;;34.00;13.83;;;-0.80;99.90;;;;;;4436706;27;658604;-77
2023/11/23 05:52:48;;;;;;;19.27;7.43;;;-0.80;99.90;;;;;;4436006;27;658985;-77
2023/11/23 05:55:35;;;;;;;16.73;5.63;;;-0.80;99.90;;;;;;4461160;27;658364;-76
2023/11/23 05:58:23;;;;;;;21.07;9.30;;;-0.70;99.90;;;;;;4440473;27;657792;-77
2023/11/23 06:01:10;;;;;;;29.77;10.40;;;-0.70;99.90;;;;;;4452427;28;658366;-77
2023/11/23 06:04:00;;;;;;;17.50;6.50;;;-0.70;99.90;;;;;;4445721;27;658253;-76
2023/11/23 06:06:47;;;;;;;32.67;12.30;;;-0.70;99.90;;;;;;4453484;28;658101;-79
2023/11/23 06:09:34;;;;;;;25.67;12.20;;;-0.70;99.90;;;;;;4426268;28;659583;-77
2023/11/23 06:12:21;;;;;;;12.70;6.00;;;-0.70;99.90;;;;;;4458173;27;659231;-78
2023/11/23 06:15:09;;;;;;;23.60;9.50;;;-0.70;99.90;;;;;;4432628;27;658003;-77
2023/11/23 06:17:56;;;;;;;22.63;9.40;;;-0.70;99.90;;;;;;4453290;27;656728;-77
2023/11/23 06:20:46;;;;;;;29.50;10.80;;;-0.60;99.90;;;;;;4435776;27;657750;-77
2023/11/23 06:23:33;;;;;;;26.80;7.93;;;-0.60;99.90;;;;;;4438679;27;658350;-76
2023/11/23 06:26:20;;;;;;;21.70;9.03;;;-0.60;99.90;;;;;;4460286;27;658343;-77
2023/11/23 06:29:08;;;;;;;18.97;6.17;;;-0.50;99.90;;;;;;4433649;27;657604;-75
2023/11/23 06:31:56;;;;;;;31.97;12.43;;;-0.60;99.90;;;;;;4456383;27;657501;-74
2023/11/23 06:34:43;;;;;;;27.57;11.87;;;-0.60;99.90;;;;;;4440393;27;659442;-76
2023/11/23 06:37:32;;;;;;;27.83;11.83;;;-0.50;99.90;;;;;;4445464;27;659934;-77
2023/11/23 06:40:19;;;;;;;28.90;11.43;;;-0.50;99.90;;;;;;4436749;27;660436;-77
2023/11/23 06:43:06;;;;;;;30.67;11.87;;;-0.40;99.90;;;;;;4464096;27;659054;-77
2023/11/23 06:45:54;;;;;;;34.37;14.23;;;-0.40;99.90;;;;;;4436153;27;659302;-77
2023/11/23 06:48:42;;;;;;;28.77;9.90;;;-0.40;99.90;;;;;;4452004;27;658568;-75
2023/11/23 06:51:29;;;;;;;14.20;5.80;;;-0.30;99.90;;;;;;4435569;27;657604;-77
2023/11/23 06:54:17;;;;;;;22.47;9.40;;;-0.30;99.90;;;;;;4456404;27;658517;-78
2023/11/23 06:57:05;;;;;;;27.50;11.33;;;-0.30;99.90;;;;;;4439076;27;658292;-77
2023/11/23 06:59:52;;;;;;;15.50;7.23;;;-0.20;99.90;;;;;;4454325;27;659718;-76
2023/11/23 07:02:40;;;;;;;20.03;8.20;;;-0.20;99.90;;;;;;4452790;28;658170;-77
2023/11/23 07:05:27;;;;;;;16.27;6.73;;;-0.20;99.90;;;;;;4456925;27;658050;-78
2023/11/23 07:08:14;;;;;;;39.77;17.33;;;-0.10;99.90;;;;;;4430334;27;658253;-78
2023/11/23 07:11:04;;;;;;;25.97;9.40;;;-0.20;99.90;;;;;;4449587;28;659277;-76
2023/11/23 07:13:51;;;;;;;12.03;5.40;;;-0.10;99.90;;;;;;4443901;27;658568;-76
2023/11/23 07:16:38;;;;;;;24.17;8.57;;;0.00;99.90;;;;;;4448289;27;658993;-76
2023/11/23 07:19:26;;;;;;;29.92;13.88;;;0.00;99.90;;;;;;4458410;27;657289;-76
2023/11/23 07:22:13;;;;;;;30.97;13.50;;;0.00;99.90;;;;;;4431316;28;658246;-76
2023/11/23 07:25:02;;;;;;;28.17;12.17;;;0.00;99.90;;;;;;4451566;28;658716;-74
2023/11/23 07:27:51;;;;;;;17.23;5.90;;;0.00;99.90;;;;;;4425108;28;658103;-76
2023/11/23 07:30:39;;;;;;;32.53;11.57;;;0.10;99.90;;;;;;4425963;27;656504;-75
2023/11/23 07:33:29;;;;;;;28.43;11.60;;;0.10;99.90;;;;;;4451940;27;657322;-78
2023/11/23 07:36:16;;;;;;;22.67;9.80;;;0.20;99.90;;;;;;4432034;28;657685;-78
2023/11/23 07:39:04;;;;;;;22.43;9.10;;;0.30;99.90;;;;;;4440734;28;656524;-75
2023/11/23 07:41:51;;;;;;;24.27;10.63;;;0.40;99.90;;;;;;4462420;27;656535;-78
2023/11/23 07:44:40;;;;;;;23.23;7.50;;;0.40;99.90;;;;;;4429523;27;658179;-76
2023/11/23 07:47:28;;;;;;;21.50;8.73;;;0.30;99.90;;;;;;4429953;28;656711;-77
2023/11/23 07:50:15;;;;;;;21.47;8.90;;;0.40;99.90;;;;;;4448980;28;656608;-77
2023/11/23 07:53:03;;;;;;;24.90;11.13;;;0.30;99.90;;;;;;4435019;28;656521;-77
2023/11/23 07:55:50;;;;;;;25.90;11.60;;;0.40;99.90;;;;;;4450897;27;657802;-77
2023/11/23 07:58:37;;;;;;;34.08;14.43;;;0.40;99.90;;;;;;4438233;28;657632;-77
2023/11/23 08:01:26;;;;;;;19.80;7.53;;;0.40;99.90;;;;;;4455658;28;658366;-75
2023/11/23 08:04:14;;;;;;;23.70;9.87;;;0.40;99.90;;;;;;4438651;28;656728;-75
2023/11/23 08:07:01;;;;;;;30.93;13.60;;;0.40;99.90;;;;;;4452792;28;656096;-75
2023/11/23 08:09:48;;;;;;;27.83;10.40;;;0.40;99.90;;;;;;4435498;28;658243;-76
2023/11/23 08:12:35;;;;;;;20.30;8.15;;;0.50;99.90;;;;;;4441106;28;658876;-80
2023/11/23 08:15:24;;;;;;;34.93;14.40;;;0.60;99.90;;;;;;4430072;28;657291;-75
2023/11/23 08:18:13;;;;;;;22.47;10.73;;;0.70;99.90;;;;;;4452946;28;657448;-77
2023/11/23 08:21:00;;;;;;;21.63;8.67;;;0.70;99.90;;;;;;4430587;28;658791;-75
2023/11/23 08:23:47;;;;;;;20.27;9.63;;;0.80;99.90;;;;;;4450129;28;656701;-77
2023/11/23 08:26:35;;;;;;;32.43;13.33;;;0.80;99.90;;;;;;4453818;28;656799;-79
2023/11/23 08:29:22;;;;;;;29.15;11.88;;;0.80;99.90;;;;;;4439759;28;657306;-77
2023/11/23 08:32:12;;;;;;;24.87;8.50;;;0.80;99.90;;;;;;4460262;28;657791;-76
2023/11/23 08:35:01;;;;;;;22.53;10.23;;;0.90;99.90;;;;;;4431155;28;656689;-76
2023/11/23 08:37:48;;;;;;;24.33;7.93;;;0.90;99.90;;;;;;4439153;28;657884;-77
2023/11/23 08:40:35;;;;;;;24.83;9.77;;;1.00;99.90;;;;;;4459392;28;657160;-77
2023/11/23 08:43:22;;;;;;;25.80;11.17;;;1.00;99.90;;;;;;4426825;28;657114;-74
2023/11/23 08:46:09;;;;;;;48.07;11.00;;;0.90;99.90;;;;;;4457679;28;657963;-76
2023/11/23 08:48:57;;;;;;;33.27;12.57;;;0.90;99.90;;;;;;4463102;27;657541;-78
2023/11/23 08:51:45;;;;;;;37.40;14.00;;;0.90;99.90;;;;;;4427391;28;657688;-78
2023/11/23 08:54:34;;;;;;;24.05;9.60;;;1.00;99.90;;;;;;4441320;27;657615;-76
2023/11/23 08:57:21;;;;;;;13.27;4.90;;;1.00;99.90;;;;;;4458137;27;656867;-79
2023/11/23 09:00:11;;;;;;;27.73;10.33;;;1.00;99.90;;;;;;4442874;27;657464;-77
2023/11/23 09:02:58;;;;;;;24.17;12.17;;;1.00;99.90;;;;;;4434384;27;657777;-76
2023/11/23 09:05:45;;;;;;;34.20;14.60;;;1.10;99.90;;;;;;4450607;27;657800;-80
2023/11/23 09:08:35;;;;;;;31.63;13.33;;;1.10;99.90;;;;;;4426353;27;657256;-75
2023/11/23 09:11:22;;;;;;;30.70;12.07;;;1.20;99.90;;;;;;4438022;28;657863;-76
2023/11/23 09:14:10;;;;;;;25.73;11.63;;;1.20;99.90;;;;;;4460119;27;658053;-79
2023/11/23 09:16:57;;;;;;;17.13;6.67;;;1.10;99.90;;;;;;4430236;27;657483;-75
2023/11/23 09:19:45;;;;;;;11.93;5.33;;;1.10;99.90;;;;;;4463829;28;657423;-77
2023/11/23 09:22:33;;;;;;;37.53;14.00;;;1.20;99.90;;;;;;4455974;27;655733;-77
2023/11/23 09:25:22;;;;;;;22.13;10.77;;;1.20;99.90;;;;;;4428270;28;658252;-76
2023/11/23 09:28:09;;;;;;;24.37;8.90;;;1.20;99.90;;;;;;4422570;27;658610;-78
2023/11/23 09:30:56;;;;;;;19.30;7.53;;;1.20;99.90;;;;;;4464811;27;656580;-78
2023/11/23 09:33:43;;;;;;;20.10;8.13;;;1.30;99.90;;;;;;4437559;27;656348;-78
2023/11/23 09:36:32;;;;;;;38.53;15.47;;;1.30;99.90;;;;;;4463426;27;658096;-76
2023/11/23 09:39:20;;;;;;;24.70;10.10;;;1.20;99.90;;;;;;4438552;28;657704;-76
2023/11/23 09:42:10;;;;;;;9.63;4.97;;;1.30;99.90;;;;;;4440918;28;657553;-78
2023/11/23 09:44:57;;;;;;;26.87;9.63;;;1.30;99.90;;;;;;4446243;28;655749;-75
2023/11/23 09:47:45;;;;;;;20.93;8.97;;;1.30;99.90;;;;;;4457538;27;656360;-77
2023/11/23 09:50:32;;;;;;;26.87;12.47;;;1.40;99.90;;;;;;4440657;28;656787;-78
2023/11/23 09:53:20;;;;;;;30.50;10.37;;;1.40;99.90;;;;;;4460405;27;657480;-77
2023/11/23 09:56:08;;;;;;;19.23;7.97;;;1.40;99.90;;;;;;4456293;27;657949;-79
2023/11/23 09:58:57;;;;;;;24.97;12.17;;;1.50;99.90;;;;;;4434154;27;656612;-77
2023/11/23 10:01:44;;;;;;;16.33;7.20;;;1.40;99.90;;;;;;4433636;27;657161;-77
2023/11/23 10:04:32;;;;;;;21.30;9.17;;;1.50;99.90;;;;;;4459541;27;657006;-73
2023/11/23 10:07:19;;;;;;;22.37;8.20;;;1.50;99.90;;;;;;4429603;27;657076;-72
2023/11/23 10:10:07;;;;;;;18.73;9.60;;;1.50;99.90;;;;;;4453599;28;656787;-77
2023/11/23 10:12:55;;;;;;;17.13;6.57;;;1.50;99.90;;;;;;4427731;27;657707;-73
2023/11/23 10:15:46;;;;;;;17.97;7.10;;;1.50;99.90;;;;;;4455424;27;656822;-72
2023/11/23 10:18:37;;;;;;;13.37;5.13;;;1.70;99.90;;;;;;4435715;28;656754;-75
2023/11/23 10:21:24;;;;;;;14.63;6.73;;;1.70;99.90;;;;;;4430560;28;656966;-72
2023/11/23 10:24:13;;;;;;;17.70;6.87;;;1.70;99.90;;;;;;4461130;27;655982;-73
2023/11/23 10:27:00;;;;;;;19.97;8.60;;;1.70;99.90;;;;;;4437766;27;657616;-73
2023/11/23 10:29:47;;;;;;;19.60;9.17;;;1.80;99.90;;;;;;4449557;27;656819;-72
2023/11/23 10:32:36;;;;;;;26.80;11.93;;;1.80;99.90;;;;;;4463209;27;656799;-73
2023/11/23 10:35:24;;;;;;;19.20;8.73;;;1.80;99.90;;;;;;4441307;27;657926;-73
2023/11/23 10:38:12;;;;;;;18.63;8.07;;;1.90;99.90;;;;;;4453781;28;656345;-76
2023/11/23 10:41:00;;;;;;;20.20;8.67;;;1.80;99.90;;;;;;4429850;28;657713;-73
2023/11/23 10:43:47;;;;;;;17.90;8.57;;;1.80;99.90;;;;;;4447288;28;656580;-73
2023/11/23 10:46:35;;;;;;;18.13;8.60;;;1.90;99.90;;;;;;4454409;28;657152;-73
2023/11/23 10:49:24;;;;;;;25.93;10.30;;;1.80;99.90;;;;;;4448002;28;657867;-73
2023/11/23 10:52:11;;;;;;;20.57;8.27;;;1.80;99.90;;;;;;4464008;27;657372;-73
2023/11/23 10:54:58;;;;;;;16.13;6.67;;;1.90;99.90;;;;;;4433281;27;656530;-75
2023/11/23 10:57:47;;;;;;;24.20;10.80;;;1.90;99.90;;;;;;4463742;27;657230;-73
2023/11/23 11:00:34;;;;;;;17.67;6.83;;;1.90;99.90;;;;;;4429898;28;657682;-74
2023/11/23 11:03:22;;;;;;;20.70;10.07;;;2.00;99.90;;;;;;4454285;28;656858;-74
2023/11/23 11:06:12;;;;;;;19.83;7.80;;;1.90;99.90;;;;;;4426958;27;658164;-74
2023/11/23 11:08:59;;;;;;;20.23;9.20;;;2.00;99.90;;;;;;4443026;27;657671;-74
2023/11/23 11:11:54;;;;;;;25.63;11.77;;;2.00;99.90;;;;;;4462278;27;656362;-73
2023/11/23 11:14:50;;;;;;;13.53;6.10;;;2.00;99.90;;;;;;4424202;27;657155;-73
2023/11/23 11:17:39;;;;;;;14.43;6.37;;;2.00;99.90;;;;;;4409691;27;656778;-74
2023/11/23 11:20:28;;;;;;;12.88;5.60;;;2.10;99.90;;;;;;4451039;28;656166;-77
2023/11/23 11:23:16;;;;;;;15.60;7.83;;;2.10;99.90;;;;;;4438031;28;657050;-75
2023/11/23 11:26:08;;;;;;;24.60;12.23;;;2.10;99.90;;;;;;4435132;27;657225;-75
2023/11/23 11:28:57;;;;;;;19.13;7.17;;;2.10;99.90;;;;;;4432991;28;658916;-78
2023/11/23 11:31:48;;;;;;;21.23;8.47;;;2.10;99.90;;;;;;4426551;27;658150;-76
2023/11/23 11:34:36;;;;;;;26.07;11.53;;;2.20;99.90;;;;;;4431341;28;658758;-77
2023/11/23 11:37:23;;;;;;;14.87;6.27;;;2.20;99.90;;;;;;4433257;28;657946;-76
2023/11/23 11:40:13;;;;;;;17.27;6.67;;;2.20;99.90;;;;;;4452919;28;657596;-76
2023/11/23 11:43:02;;;;;;;22.00;8.93;;;2.30;99.90;;;;;;4434673;27;657526;-77
2023/11/23 11:45:49;;;;;;;16.03;7.27;;;2.40;99.90;;;;;;4420423;28;656633;-77
2023/11/23 11:48:36;;;;;;;15.37;5.27;;;2.40;99.90;;;;;;4451453;28;656968;-76
2023/11/23 11:51:23;;;;;;;18.33;9.17;;;2.50;99.90;;;;;;4435210;28;656964;-76
2023/11/23 11:54:11;;;;;;;17.20;7.43;;;2.50;99.90;;;;;;4449477;28;656954;-77
2023/11/23 11:57:02;;;;;;;18.83;8.43;;;2.60;99.90;;;;;;4431832;28;656549;-75
2023/11/23 11:59:51;;;;;;;20.57;7.47;;;2.60;99.90;;;;;;4426659;28;657225;-76
2023/11/23 12:02:38;;;;;;;12.83;5.80;;;2.60;99.90;;;;;;4425355;28;657103;-74
2023/11/23 12:05:25;;;;;;;19.77;10.07;;;2.70;99.90;;;;;;4454737;28;656074;-74
2023/11/23 12:08:12;;;;;;;16.65;8.15;;;2.70;99.90;;;;;;4440024;28;657962;-73
2023/11/23 12:11:00;;;;;;;21.80;10.43;;;2.70;99.90;;;;;;4457938;28;657348;-73
2023/11/23 12:13:48;;;;;;;20.73;9.67;;;2.80;99.90;;;;;;4462591;28;657319;-73
2023/11/23 12:16:36;;;;;;;13.90;4.90;;;2.70;99.90;;;;;;4440691;28;657884;-74
2023/11/23 12:19:26;;;;;;;14.00;6.97;;;2.80;99.90;;;;;;4437887;28;656557;-74
2023/11/23 12:22:13;;;;;;;19.07;8.00;;;2.80;99.90;;;;;;4438827;28;656819;-74
2023/11/23 12:25:05;;;;;;;19.57;7.60;;;2.90;99.90;;;;;;4444162;28;657308;-74
2023/11/23 12:27:52;;;;;;;20.37;9.37;;;2.90;99.90;;;;;;4428470;27;657439;-72
2023/11/23 12:30:41;;;;;;;15.37;7.77;;;2.90;99.90;;;;;;4455353;28;656539;-73
2023/11/23 12:33:28;;;;;;;17.67;8.33;;;3.00;99.90;;;;;;4435859;27;655997;-74
2023/11/23 12:36:16;;;;;;;13.47;4.73;;;3.00;99.90;;;;;;4456314;28;657821;-73
2023/11/23 12:39:05;;;;;;;16.63;6.30;;;3.00;99.90;;;;;;4434257;27;657023;-73
2023/11/23 12:41:52;;;;;;;15.13;5.13;;;3.00;99.90;;;;;;4454357;27;656278;-73
2023/11/23 12:44:40;;;;;;;19.97;7.53;;;2.90;99.90;;;;;;4443986;27;657371;-73
2023/11/23 12:47:28;;;;;;;8.83;4.07;;;2.90;99.90;;;;;;4459390;27;656730;-73
2023/11/23 12:50:16;;;;;;;20.43;6.13;;;2.90;99.90;;;;;;4450609;27;656330;-73
2023/11/23 12:53:05;;;;;;;14.27;5.90;;;3.00;99.90;;;;;;4437663;27;656894;-72
2023/11/23 12:55:53;;;;;;;14.80;7.00;;;3.00;99.90;;;;;;4431216;28;656782;-72
2023/11/23 12:58:40;;;;;;;14.23;5.50;;;3.00;99.90;;;;;;4452776;28;657119;-74
2023/11/23 13:01:31;;;;;;;15.53;8.13;;;3.00;99.90;;;;;;4443202;27;657183;-72
2023/11/23 13:04:19;;;;;;;19.23;8.10;;;3.00;99.90;;;;;;4440921;27;657039;-72
2023/11/23 13:07:07;;;;;;;20.03;9.60;;;3.00;99.90;;;;;;4465174;27;655700;-73
2023/11/23 13:09:55;;;;;;;16.00;7.70;;;3.00;99.90;;;;;;4448414;27;656790;-73
2023/11/23 13:12:42;;;;;;;10.23;5.33;;;3.00;99.90;;;;;;4453327;28;656723;-73
2023/11/23 13:15:29;;;;;;;13.80;6.40;;;3.00;99.90;;;;;;4434896;27;658239;-72
2023/11/23 13:18:16;;;;;;;16.83;6.67;;;3.00;99.90;;;;;;4458024;28;656534;-72
2023/11/23 13:21:05;;;;;;;19.17;9.10;;;3.00;99.90;;;;;;4428566;28;656541;-72
2023/11/23 13:23:52;;;;;;;17.10;7.63;;;3.10;99.90;;;;;;4434143;28;656889;-73
2023/11/23 13:26:40;;;;;;;11.90;5.68;;;3.10;99.90;;;;;;4457269;28;656640;-72
2023/11/23 13:29:27;;;;;;;14.17;6.33;;;3.10;99.90;;;;;;4466313;27;656680;-73
2023/11/23 13:32:14;;;;;;;11.00;4.67;;;3.20;99.90;;;;;;4430822;27;656898;-72
2023/11/23 13:35:01;;;;;;;18.77;7.27;;;3.20;99.90;;;;;;4451194;27;656220;-72
2023/11/23 13:37:50;;;;;;;15.63;6.30;;;3.20;99.90;;;;;;4437279;27;656326;-73
2023/11/23 13:40:38;;;;;;;13.97;5.67;;;3.20;99.90;;;;;;4435963;27;656664;-72
2023/11/23 13:43:25;;;;;;;15.20;5.17;;;3.20;99.90;;;;;;4447564;28;658246;-73
2023/11/23 13:46:14;;;;;;;14.47;6.67;;;3.30;99.90;;;;;;4447149;28;656715;-72
2023/11/23 13:49:01;;;;;;;13.57;7.40;;;3.30;99.90;;;;;;4462523;27;657387;-73
2023/11/23 13:51:49;;;;;;;16.47;8.27;;;3.30;99.90;;;;;;4435388;27;656481;-72
2023/11/23 13:54:38;;;;;;;13.83;6.63;;;3.30;99.90;;;;;;4448491;27;656982;-73
2023/11/23 13:57:25;;;;;;;10.53;5.17;;;3.30;99.90;;;;;;4436478;27;657782;-72
2023/11/23 14:00:22;;;;;;;11.85;5.30;;;3.30;99.90;;;;;;4443567;27;656694;-72
2023/11/23 14:03:09;;;;;;;11.33;6.43;;;3.30;99.90;;;;;;4438594;28;657345;-73
2023/11/23 14:05:57;;;;;;;8.93;4.20;;;3.30;99.90;;;;;;4460784;28;656746;-72
2023/11/23 14:08:45;;;;;;;9.97;3.77;;;3.30;99.90;;;;;;4439279;27;656446;-73
2023/11/23 14:11:34;;;;;;;14.30;6.50;;;3.30;99.90;;;;;;4445867;27;656252;-72